Time;durP1;ratioP1;P1;durP2;ratioP2;P2;SDS_P1;SDS_P2;PMS_P1;PMS_P2;Temp;Humidity;BMP_temperature;BMP_pressure;BME280_temperature;BME280_humidity;BME280_pressure;Samples;Min_cycle;Max_cycle;Signal;HPM_P1;HPM_P2
2023/05/28 00:01:12;;;;;;;21.65;7.70;;;11.80;99.90;;;;;;7364647;19;20018;-64
2023/05/28 00:03:41;;;;;;;25.98;11.90;;;11.80;99.90;;;;;;7368764;19;20022;-57
2023/05/28 00:06:07;;;;;;;20.90;8.77;;;11.70;99.90;;;;;;7368733;19;20107;-63
2023/05/28 00:08:33;;;;;;;17.90;8.20;;;11.70;99.90;;;;;;7364331;19;20018;-58
2023/05/28 00:11:00;;;;;;;19.58;8.20;;;11.70;99.90;;;;;;7369618;19;20082;-58
2023/05/28 00:13:30;;;;;;;19.55;8.32;;;11.70;99.90;;;;;;7365991;19;20022;-63
2023/05/28 00:15:56;;;;;;;21.25;8.80;;;11.70;99.90;;;;;;7370568;19;20904;-63
2023/05/28 00:18:23;;;;;;;19.75;8.02;;;11.60;99.90;;;;;;7366561;19;20022;-63
2023/05/28 00:20:50;;;;;;;23.70;8.45;;;11.60;99.90;;;;;;7370692;19;20018;-58
2023/05/28 00:23:17;;;;;;;24.48;9.27;;;11.50;99.90;;;;;;7366321;19;20030;-63
2023/05/28 00:25:43;;;;;;;18.48;8.40;;;11.50;99.90;;;;;;7367967;19;20028;-63
2023/05/28 00:28:09;;;;;;;18.23;8.60;;;11.50;99.90;;;;;;7366909;19;20018;-64
2023/05/28 00:30:35;;;;;;;24.02;8.25;;;11.40;99.90;;;;;;7362682;19;20500;-57
2023/05/28 00:33:02;;;;;;;21.10;9.15;;;11.40;99.90;;;;;;7363929;19;20466;-63
2023/05/28 00:35:29;;;;;;;20.75;7.75;;;11.40;99.90;;;;;;7368061;19;20072;-58
2023/05/28 00:37:55;;;;;;;19.25;8.13;;;11.40;99.90;;;;;;7366689;19;20659;-63
2023/05/28 00:40:22;;;;;;;20.77;9.02;;;11.30;99.90;;;;;;7362690;19;20877;-63
2023/05/28 00:42:48;;;;;;;19.52;9.00;;;11.30;99.90;;;;;;7362741;19;20068;-63
2023/05/28 00:45:14;;;;;;;19.05;8.00;;;11.20;99.90;;;;;;7362379;19;20828;-63
2023/05/28 00:47:42;;;;;;;22.48;8.80;;;11.20;99.90;;;;;;7361627;19;20034;-63
2023/05/28 00:50:09;;;;;;;20.67;8.82;;;11.20;99.90;;;;;;7360456;19;20494;-63
2023/05/28 00:52:36;;;;;;;18.60;8.05;;;11.20;99.90;;;;;;7355810;19;20482;-63
2023/05/28 00:55:12;;;;;;;21.88;8.02;;;11.20;99.90;;;;;;7361136;19;20397;-63
2023/05/28 00:57:39;;;;;;;19.13;8.32;;;11.10;99.90;;;;;;7358721;19;20347;-63
2023/05/28 01:00:06;;;;;;;18.50;7.47;;;11.10;99.90;;;;;;7365002;19;20846;-63
2023/05/28 01:02:32;;;;;;;19.60;8.45;;;11.00;99.90;;;;;;7364844;19;20775;-63
2023/05/28 01:04:59;;;;;;;17.35;7.68;;;11.00;99.90;;;;;;7369341;19;20022;-58
2023/05/28 01:07:26;;;;;;;17.38;7.80;;;11.00;99.90;;;;;;7368836;19;20018;-58
2023/05/28 01:09:52;;;;;;;17.45;7.82;;;11.00;99.90;;;;;;7370502;19;20511;-58
2023/05/28 01:12:19;;;;;;;21.40;8.48;;;10.90;99.90;;;;;;7362506;19;20923;-57
2023/05/28 01:14:46;;;;;;;19.85;8.52;;;10.90;99.90;;;;;;7371504;19;20018;-57
2023/05/28 01:17:14;;;;;;;16.73;8.40;;;10.90;99.90;;;;;;7369275;19;20794;-57
2023/05/28 01:19:42;;;;;;;20.63;9.05;;;10.90;99.90;;;;;;7371377;19;20033;-58
2023/05/28 01:22:12;;;;;;;21.92;9.18;;;10.90;99.90;;;;;;7362295;19;20029;-63
2023/05/28 01:24:39;;;;;;;19.73;8.43;;;10.90;99.90;;;;;;7369795;19;20023;-63
2023/05/28 01:27:06;;;;;;;20.90;9.45;;;10.90;99.90;;;;;;7373244;19;20022;-57
2023/05/28 01:29:32;;;;;;;22.33;9.07;;;10.90;99.90;;;;;;7376829;19;20022;-57
2023/05/28 01:31:59;;;;;;;20.50;9.50;;;10.90;99.90;;;;;;7372843;19;20027;-58
2023/05/28 01:34:27;;;;;;;23.20;9.43;;;10.90;99.90;;;;;;7378333;19;20558;-57
2023/05/28 01:36:58;;;;;;;23.73;9.32;;;10.90;99.90;;;;;;7378971;19;20093;-57
2023/05/28 01:39:33;;;;;;;18.70;9.57;;;10.90;99.90;;;;;;7376410;19;20017;-57
2023/05/28 01:42:01;;;;;;;23.15;8.95;;;10.90;99.90;;;;;;7378100;19;20038;-57
2023/05/28 01:44:30;;;;;;;23.42;8.45;;;10.90;99.90;;;;;;7380004;19;20018;-58
2023/05/28 01:46:57;;;;;;;24.13;9.98;;;10.90;99.90;;;;;;7382848;19;20033;-58
2023/05/28 01:49:23;;;;;;;24.73;10.32;;;10.90;99.90;;;;;;7379696;19;20482;-58
2023/05/28 01:51:52;;;;;;;20.77;8.70;;;10.90;99.90;;;;;;7382031;19;20058;-58
2023/05/28 01:54:20;;;;;;;21.90;8.98;;;10.90;99.90;;;;;;7383286;19;20352;-58
2023/05/28 01:56:46;;;;;;;21.35;8.95;;;11.00;99.90;;;;;;7383182;19;20058;-63
2023/05/28 01:59:13;;;;;;;21.25;9.75;;;10.90;99.90;;;;;;7377078;19;20014;-63
2023/05/28 02:01:40;;;;;;;20.90;9.32;;;11.00;99.90;;;;;;7377746;19;20057;-63
2023/05/28 02:04:09;;;;;;;18.23;9.50;;;10.90;99.90;;;;;;7378049;19;20018;-57
2023/05/28 02:06:36;;;;;;;20.15;9.00;;;11.00;99.90;;;;;;7381744;19;20021;-58
2023/05/28 02:09:02;;;;;;;25.98;10.05;;;11.00;99.90;;;;;;7377717;19;20014;-57
2023/05/28 02:11:29;;;;;;;23.40;10.55;;;10.90;99.90;;;;;;7381956;19;20415;-57
2023/05/28 02:13:56;;;;;;;23.02;9.35;;;11.00;99.90;;;;;;7377359;19;20600;-57
2023/05/28 02:16:24;;;;;;;23.15;9.80;;;11.00;99.90;;;;;;7377736;19;20018;-58
2023/05/28 02:18:54;;;;;;;18.42;9.32;;;11.00;99.90;;;;;;7375888;19;20490;-58
2023/05/28 02:21:22;;;;;;;21.48;9.52;;;11.00;99.90;;;;;;7374942;19;20034;-58
2023/05/28 02:23:49;;;;;;;24.35;9.45;;;11.00;99.90;;;;;;7377109;19;20116;-57
2023/05/28 02:26:17;;;;;;;19.58;8.68;;;11.00;99.90;;;;;;7373864;19;20078;-58
2023/05/28 02:28:45;;;;;;;18.58;9.40;;;11.00;99.90;;;;;;7376859;19;20809;-57
2023/05/28 02:31:14;;;;;;;22.92;10.02;;;11.10;99.90;;;;;;7367608;19;20011;-57
2023/05/28 02:33:41;;;;;;;20.75;9.05;;;11.10;99.90;;;;;;7371961;19;21588;-57
2023/05/28 02:36:13;;;;;;;21.05;9.95;;;11.10;99.90;;;;;;7373732;19;20014;-58
2023/05/28 02:38:41;;;;;;;18.77;9.30;;;11.10;99.90;;;;;;7372552;19;20028;-57
2023/05/28 02:41:08;;;;;;;20.92;9.90;;;11.10;99.90;;;;;;7378988;19;20026;-59
2023/05/28 02:43:36;;;;;;;19.70;9.10;;;11.10;99.90;;;;;;7371044;19;20354;-57
2023/05/28 02:46:05;;;;;;;22.95;9.98;;;11.10;99.90;;;;;;7374830;19;20019;-57
2023/05/28 02:48:33;;;;;;;18.75;8.68;;;11.10;99.90;;;;;;7373555;19;20030;-57
2023/05/28 02:50:59;;;;;;;19.10;8.18;;;11.20;99.90;;;;;;7364144;19;20023;-57
2023/05/28 02:53:45;;;;;;;24.52;8.75;;;11.20;99.90;;;;;;7378865;19;20513;-57
2023/05/28 02:56:11;;;;;;;18.10;8.25;;;11.20;99.90;;;;;;7369294;19;20018;-57
2023/05/28 02:58:42;;;;;;;18.60;8.40;;;11.20;99.90;;;;;;7368666;19;20018;-57
2023/05/28 03:01:09;;;;;;;24.17;9.43;;;11.10;99.90;;;;;;7371938;19;20546;-57
2023/05/28 03:03:36;;;;;;;23.33;9.02;;;11.10;99.90;;;;;;7367637;19;20022;-58
2023/05/28 03:06:03;;;;;;;18.00;8.73;;;11.10;99.90;;;;;;7368217;19;20014;-57
2023/05/28 03:08:35;;;;;;;21.45;8.52;;;11.10;99.90;;;;;;7368039;19;20022;-58
2023/05/28 03:11:01;;;;;;;21.85;9.65;;;11.10;99.90;;;;;;7370559;19;20018;-57
2023/05/28 03:13:27;;;;;;;21.75;9.70;;;11.10;99.90;;;;;;7369867;19;20850;-57
2023/05/28 03:15:53;;;;;;;20.95;9.30;;;11.20;99.90;;;;;;7371458;19;20025;-63
2023/05/28 03:18:21;;;;;;;22.25;9.38;;;11.10;99.90;;;;;;7367548;19;20052;-64
2023/05/28 03:20:47;;;;;;;20.58;8.77;;;11.10;99.90;;;;;;7364323;19;20022;-63
2023/05/28 03:23:13;;;;;;;18.48;8.50;;;11.10;99.90;;;;;;7368792;19;20496;-63
2023/05/28 03:26:06;;;;;;;22.70;9.77;;;11.00;99.90;;;;;;7364880;19;20121;-64
2023/05/28 03:28:32;;;;;;;26.85;8.70;;;11.00;99.90;;;;;;7364461;19;20029;-64
2023/05/28 03:31:20;;;;;;;20.98;8.98;;;11.00;99.90;;;;;;7361896;19;20014;-64
2023/05/28 03:33:47;;;;;;;22.40;9.07;;;11.00;99.90;;;;;;7365644;19;20022;-64
2023/05/28 03:36:14;;;;;;;24.00;9.43;;;11.00;99.90;;;;;;7365022;19;20011;-63
2023/05/28 03:38:40;;;;;;;16.63;8.98;;;11.00;99.90;;;;;;7360798;19;20478;-63
2023/05/28 03:41:06;;;;;;;21.83;8.88;;;11.10;99.90;;;;;;7372942;19;20063;-63
2023/05/28 03:43:34;;;;;;;20.10;8.73;;;11.10;99.90;;;;;;7372432;19;20022;-63
2023/05/28 03:46:03;;;;;;;21.88;9.10;;;11.10;99.90;;;;;;7374728;19;20014;-63
2023/05/28 03:48:29;;;;;;;16.33;8.85;;;11.10;99.90;;;;;;7373722;19;20022;-63
2023/05/28 03:50:56;;;;;;;21.20;8.88;;;11.10;99.90;;;;;;7376090;19;20501;-62
2023/05/28 03:53:23;;;;;;;22.65;8.77;;;11.10;99.90;;;;;;7374801;19;20022;-63
2023/05/28 03:55:51;;;;;;;16.77;8.63;;;11.10;99.90;;;;;;7379104;19;20383;-58
2023/05/28 03:58:18;;;;;;;19.70;8.90;;;11.10;99.90;;;;;;7373525;19;20433;-57
2023/05/28 04:00:44;;;;;;;23.38;9.23;;;11.10;99.90;;;;;;7376257;19;20019;-58
2023/05/28 04:03:11;;;;;;;17.67;8.60;;;11.10;99.90;;;;;;7375564;19;20018;-57
2023/05/28 04:05:41;;;;;;;17.00;8.15;;;11.10;99.90;;;;;;7375833;19;20057;-57
2023/05/28 04:08:07;;;;;;;23.73;9.30;;;11.10;99.90;;;;;;7375796;19;20466;-58
2023/05/28 04:10:33;;;;;;;23.55;8.73;;;11.10;99.90;;;;;;7370800;19;20042;-58
2023/05/28 04:12:59;;;;;;;19.25;8.35;;;11.10;99.90;;;;;;7374927;19;20569;-57
2023/05/28 04:15:26;;;;;;;21.33;9.57;;;11.10;99.90;;;;;;7373111;19;21255;-58
2023/05/28 04:17:52;;;;;;;23.67;8.77;;;11.10;99.90;;;;;;7373111;19;20010;-57
2023/05/28 04:20:18;;;;;;;16.15;9.32;;;11.10;99.90;;;;;;7368420;19;20033;-58
2023/05/28 04:22:48;;;;;;;18.67;8.75;;;11.10;99.90;;;;;;7372989;19;20018;-57
2023/05/28 04:25:15;;;;;;;15.70;8.80;;;11.00;99.90;;;;;;7373934;19;20014;-58
2023/05/28 04:27:41;;;;;;;19.23;9.00;;;11.00;99.90;;;;;;7371624;19;20494;-57
2023/05/28 04:30:09;;;;;;;21.00;9.05;;;11.10;99.90;;;;;;7372197;19;20044;-58
2023/05/28 04:32:35;;;;;;;23.20;9.65;;;11.10;99.90;;;;;;7369320;19;20018;-57
2023/05/28 04:35:03;;;;;;;21.83;9.05;;;11.10;99.90;;;;;;7373141;19;20043;-58
2023/05/28 04:37:32;;;;;;;24.05;9.27;;;11.10;99.90;;;;;;7371007;19;20153;-63
2023/05/28 04:39:59;;;;;;;23.77;8.68;;;11.10;99.90;;;;;;7366385;19;20022;-63
2023/05/28 04:42:28;;;;;;;19.75;9.45;;;11.10;99.90;;;;;;7371658;19;20058;-63
2023/05/28 04:44:54;;;;;;;24.92;9.40;;;11.10;99.90;;;;;;7369877;19;20022;-63
2023/05/28 04:47:22;;;;;;;21.83;8.88;;;11.10;99.90;;;;;;7367375;19;20019;-63
2023/05/28 04:49:50;;;;;;;21.50;9.30;;;11.20;99.90;;;;;;7370373;19;20014;-63
2023/05/28 04:52:17;;;;;;;22.23;9.90;;;11.30;99.90;;;;;;7369178;19;20102;-63
2023/05/28 04:54:45;;;;;;;24.00;10.32;;;11.30;99.90;;;;;;7371773;19;20070;-63
2023/05/28 04:57:12;;;;;;;26.42;9.88;;;11.30;99.90;;;;;;7364282;19;20026;-63
2023/05/28 04:59:38;;;;;;;19.30;8.98;;;11.40;99.90;;;;;;7366510;19;20025;-63
2023/05/28 05:02:04;;;;;;;24.80;9.88;;;11.40;99.90;;;;;;7371574;19;20030;-63
2023/05/28 05:04:30;;;;;;;23.98;10.43;;;11.50;99.90;;;;;;7372497;19;20015;-57
2023/05/28 05:06:57;;;;;;;17.92;9.55;;;11.50;99.90;;;;;;7370239;19;20029;-62
2023/05/28 05:09:23;;;;;;;19.33;8.55;;;11.70;99.90;;;;;;7369414;19;20872;-62
2023/05/28 05:11:51;;;;;;;23.42;9.60;;;11.80;99.90;;;;;;7367778;19;20024;-61
2023/05/28 05:14:17;;;;;;;21.27;9.27;;;12.10;99.90;;;;;;7370111;19;20026;-61
2023/05/28 05:16:45;;;;;;;21.83;9.85;;;12.30;99.90;;;;;;7367836;19;20052;-62
2023/05/28 05:19:12;;;;;;;21.85;9.02;;;12.60;99.90;;;;;;7365025;19;20025;-64
2023/05/28 05:21:38;;;;;;;21.50;8.80;;;12.80;99.90;;;;;;7363260;19;20367;-65
2023/05/28 05:24:04;;;;;;;21.05;10.07;;;13.10;99.90;;;;;;7367407;19;20027;-64
2023/05/28 05:26:32;;;;;;;20.55;8.75;;;13.40;99.90;;;;;;7365895;19;20019;-65
2023/05/28 05:28:58;;;;;;;16.98;7.78;;;13.70;99.90;;;;;;7365578;19;20371;-64
2023/05/28 05:31:24;;;;;;;21.05;8.45;;;14.00;99.90;;;;;;7362196;19;20015;-63
2023/05/28 05:33:51;;;;;;;54.63;41.47;;;14.20;99.90;;;;;;7366711;19;20105;-67
2023/05/28 05:36:20;;;;;;;21.88;12.30;;;14.40;99.90;;;;;;7364138;19;20029;-64
2023/05/28 05:39:03;;;;;;;34.55;20.92;;;14.50;99.90;;;;;;7366824;19;20765;-64
2023/05/28 05:41:49;;;;;;;28.35;20.65;;;14.60;99.90;;;;;;7368356;19;20108;-64
2023/05/28 05:44:27;;;;;;;19.08;7.75;;;14.70;99.90;;;;;;7369678;19;20027;-64
2023/05/28 05:46:53;;;;;;;17.98;10.95;;;14.80;99.90;;;;;;7377042;19;20099;-64
2023/05/28 05:49:20;;;;;;;21.45;13.40;;;15.10;99.90;;;;;;7374252;19;20490;-64
2023/05/28 05:51:47;;;;;;;18.38;8.70;;;15.40;99.90;;;;;;7373200;19;20800;-64
2023/05/28 05:54:13;;;;;;;16.02;8.15;;;15.70;99.90;;;;;;7374685;19;20086;-64
2023/05/28 05:56:40;;;;;;;15.85;7.28;;;15.90;99.90;;;;;;7372966;19;20015;-65
2023/05/28 05:59:06;;;;;;;32.40;21.95;;;16.10;99.90;;;;;;7372326;19;20035;-62
2023/05/28 06:01:33;;;;;;;18.83;11.50;;;16.10;99.90;;;;;;7372776;19;20019;-64
2023/05/28 06:03:59;;;;;;;20.35;9.45;;;16.30;99.90;;;;;;7375638;19;20046;-64
2023/05/28 06:06:36;;;;;;;18.88;11.50;;;16.40;99.90;;;;;;7374435;19;20025;-64
2023/05/28 06:09:06;;;;;;;15.02;7.60;;;16.60;99.90;;;;;;7375158;19;20486;-64
2023/05/28 06:11:45;;;;;;;22.30;14.70;;;16.60;99.90;;;;;;7373204;19;20022;-64
2023/05/28 06:14:12;;;;;;;22.65;11.90;;;16.60;99.90;;;;;;7374265;19;20033;-64
2023/05/28 06:16:38;;;;;;;17.42;7.85;;;16.50;99.90;;;;;;7373090;19;20483;-64
2023/05/28 06:19:04;;;;;;;16.20;7.10;;;16.50;99.90;;;;;;7374180;19;20014;-64
2023/05/28 06:21:30;;;;;;;19.85;9.70;;;16.40;99.90;;;;;;7371439;19;20056;-64
2023/05/28 06:23:57;;;;;;;18.95;7.32;;;16.30;99.90;;;;;;7375048;19;20057;-64
2023/05/28 06:26:23;;;;;;;15.63;6.85;;;16.30;99.90;;;;;;7369576;19;20019;-62
2023/05/28 06:28:50;;;;;;;16.33;6.47;;;16.30;99.90;;;;;;7372323;19;20026;-62
2023/05/28 06:31:17;;;;;;;16.08;7.88;;;16.20;99.90;;;;;;7369459;19;20015;-65
2023/05/28 06:33:43;;;;;;;24.40;13.82;;;16.20;99.90;;;;;;7371461;19;20018;-61
2023/05/28 06:36:10;;;;;;;56.97;48.20;;;16.30;99.90;;;;;;7373832;19;20071;-61
2023/05/28 06:38:37;;;;;;;16.33;7.60;;;16.40;99.90;;;;;;7370661;19;20025;-65
2023/05/28 06:41:04;;;;;;;27.80;15.38;;;16.80;99.90;;;;;;7371800;19;20359;-65
2023/05/28 06:43:38;;;;;;;37.35;24.50;;;17.10;99.90;;;;;;7371065;19;20022;-65
2023/05/28 06:46:10;;;;;;;21.08;16.35;;;17.40;99.90;;;;;;7373394;19;20510;-65
2023/05/28 06:48:37;;;;;;;18.15;10.60;;;17.80;99.90;;;;;;7372648;19;20899;-61
2023/05/28 06:51:04;;;;;;;34.75;24.70;;;18.00;99.90;;;;;;7369145;19;20135;-61
2023/05/28 06:53:34;;;;;;;17.35;8.98;;;18.20;99.90;;;;;;7373108;19;20022;-61
2023/05/28 06:56:00;;;;;;;24.33;12.80;;;18.40;99.90;;;;;;7366663;19;20110;-61
2023/05/28 06:59:05;;;;;;;21.05;13.63;;;18.60;99.90;;;;;;7368847;19;20010;-61
2023/05/28 07:01:53;;;;;;;13.40;6.72;;;18.80;99.90;;;;;;7376258;19;20018;-62
2023/05/28 07:04:33;;;;;;;16.38;10.63;;;19.10;99.90;;;;;;7371252;19;20597;-63
2023/05/28 07:07:05;;;;;;;35.55;30.50;;;19.10;99.90;;;;;;7374459;19;20501;-65
2023/05/28 07:09:34;;;;;;;19.88;15.23;;;19.40;99.90;;;;;;7370317;19;20038;-62
2023/05/28 07:12:01;;;;;;;31.83;25.30;;;19.50;99.90;;;;;;7371498;19;20078;-62
2023/05/28 07:14:28;;;;;;;24.02;19.08;;;19.70;99.90;;;;;;7372324;19;20018;-63
2023/05/28 07:16:54;;;;;;;15.95;11.27;;;19.90;99.90;;;;;;7377173;19;20015;-62
2023/05/28 07:19:21;;;;;;;14.55;9.88;;;20.00;99.90;;;;;;7368254;19;20018;-62
2023/05/28 07:21:48;;;;;;;38.50;32.15;;;20.20;99.90;;;;;;7371172;19;20671;-64
2023/05/28 07:24:14;;;;;;;142.80;128.88;;;20.10;99.90;;;;;;7370269;19;20090;-67
2023/05/28 07:26:41;;;;;;;18.08;7.70;;;20.20;99.90;;;;;;7371522;19;20682;-68
2023/05/28 07:29:07;;;;;;;18.13;11.35;;;20.30;99.90;;;;;;7371234;19;20051;-68
2023/05/28 07:31:35;;;;;;;17.23;8.02;;;20.50;99.90;;;;;;7369883;19;20014;-65
2023/05/28 07:34:02;;;;;;;23.27;18.10;;;20.50;99.90;;;;;;7369696;19;20023;-60
2023/05/28 07:36:32;;;;;;;13.77;8.30;;;20.60;99.90;;;;;;7371508;19;20024;-60
2023/05/28 07:38:58;;;;;;;16.17;6.18;;;20.40;95.80;;;;;;7372025;19;20018;-60
2023/05/28 07:41:28;;;;;;;10.35;6.13;;;20.60;98.70;;;;;;7371381;19;20660;-59
2023/05/28 07:44:08;;;;;;;15.40;8.23;;;20.70;99.60;;;;;;7374007;19;20025;-60
2023/05/28 07:46:34;;;;;;;11.30;6.07;;;20.70;99.40;;;;;;7370247;19;20018;-59
2023/05/28 07:49:09;;;;;;;15.45;8.95;;;20.90;97.10;;;;;;7369503;19;20480;-60
2023/05/28 07:51:43;;;;;;;13.82;8.13;;;21.20;93.80;;;;;;7373008;19;20025;-63
2023/05/28 07:54:17;;;;;;;13.40;6.30;;;21.20;84.30;;;;;;7377817;19;20026;-64
2023/05/28 07:56:46;;;;;;;12.88;6.28;;;21.40;91.60;;;;;;7375540;19;20077;-64
2023/05/28 07:59:21;;;;;;;14.02;7.60;;;21.60;73.10;;;;;;7377263;19;20097;-64
2023/05/28 08:01:48;;;;;;;13.25;8.40;;;21.60;69.60;;;;;;7377315;19;20015;-64
2023/05/28 08:04:15;;;;;;;15.30;8.43;;;21.70;74.40;;;;;;7379660;19;20368;-63
2023/05/28 08:06:41;;;;;;;12.95;7.60;;;21.60;70.80;;;;;;7383634;19;20487;-64
2023/05/28 08:09:11;;;;;;;12.38;7.45;;;21.70;69.20;;;;;;7377673;19;20022;-60
2023/05/28 08:11:39;;;;;;;11.75;6.63;;;22.10;69.40;;;;;;7370788;19;20022;-59
2023/05/28 08:14:06;;;;;;;14.18;9.00;;;22.30;64.80;;;;;;7369254;19;20025;-60
2023/05/28 08:16:33;;;;;;;9.10;6.13;;;22.40;64.00;;;;;;7374800;19;20604;-59
2023/05/28 08:19:17;;;;;;;11.82;7.53;;;22.50;61.80;;;;;;7375371;19;20023;-60
2023/05/28 08:21:45;;;;;;;12.52;7.22;;;22.70;60.60;;;;;;7377745;19;20017;-64
2023/05/28 08:24:12;;;;;;;13.02;7.35;;;22.60;60.70;;;;;;7389011;19;20070;-64
2023/05/28 08:26:40;;;;;;;13.70;10.00;;;22.80;58.90;;;;;;7386625;19;20021;-64
2023/05/28 08:29:08;;;;;;;12.10;6.75;;;22.60;57.90;;;;;;7387238;19;20443;-64
2023/05/28 08:31:39;;;;;;;13.05;7.82;;;22.80;57.70;;;;;;7380637;19;21108;-60
2023/05/28 08:34:36;;;;;;;14.40;8.88;;;22.80;56.90;;;;;;7381118;19;20018;-64
2023/05/28 08:37:06;;;;;;;11.70;7.35;;;22.90;57.20;;;;;;7388304;19;20035;-64
2023/05/28 08:39:42;;;;;;;12.90;8.80;;;23.00;56.20;;;;;;7387650;19;20025;-64
2023/05/28 08:42:10;;;;;;;12.98;8.80;;;23.20;55.60;;;;;;7388707;19;20014;-62
2023/05/28 08:44:37;;;;;;;11.50;6.38;;;23.30;55.30;;;;;;7388616;19;20025;-63
2023/05/28 08:47:05;;;;;;;12.50;6.45;;;23.20;54.50;;;;;;7390225;19;20010;-62
2023/05/28 08:49:45;;;;;;;12.70;7.78;;;23.20;54.00;;;;;;7389515;19;20015;-62
2023/05/28 08:52:17;;;;;;;11.68;6.47;;;23.60;53.90;;;;;;7386446;19;20022;-63
2023/05/28 08:54:51;;;;;;;12.73;6.75;;;23.70;53.90;;;;;;7386882;19;20361;-62
2023/05/28 08:57:18;;;;;;;9.45;6.13;;;23.80;52.10;;;;;;7389589;19;20025;-62
2023/05/28 08:59:55;;;;;;;15.18;8.15;;;24.10;53.40;;;;;;7384914;19;20019;-63
2023/05/28 09:02:26;;;;;;;10.88;6.43;;;24.00;51.90;;;;;;7383905;19;20023;-63
2023/05/28 09:04:53;;;;;;;11.35;7.38;;;24.10;51.60;;;;;;7383580;19;20046;-63
2023/05/28 09:07:20;;;;;;;11.90;8.18;;;24.40;50.90;;;;;;7383438;19;20128;-63
2023/05/28 09:09:57;;;;;;;10.88;6.82;;;24.80;51.10;;;;;;7384695;19;20470;-63
2023/05/28 09:12:27;;;;;;;10.63;6.55;;;24.60;50.60;;;;;;7382590;19;20018;-63
2023/05/28 09:14:59;;;;;;;11.38;6.13;;;24.80;52.10;;;;;;7385005;19;20022;-63
2023/05/28 09:17:41;;;;;;;9.30;6.05;;;24.90;51.60;;;;;;7386055;19;20556;-63
2023/05/28 09:20:17;;;;;;;12.13;6.60;;;25.10;50.30;;;;;;7388904;19;20039;-63
2023/05/28 09:22:44;;;;;;;9.55;5.55;;;25.00;51.50;;;;;;7391008;19;20403;-63
2023/05/28 09:25:38;;;;;;;11.07;6.35;;;24.90;50.90;;;;;;7390621;19;20029;-63
2023/05/28 09:28:13;;;;;;;10.07;6.03;;;24.90;50.40;;;;;;7391402;19;20019;-63
2023/05/28 09:30:41;;;;;;;9.70;5.95;;;24.80;50.60;;;;;;7392023;19;20112;-63
2023/05/28 09:33:09;;;;;;;9.23;5.22;;;25.00;50.50;;;;;;7391715;19;20022;-62
2023/05/28 09:35:35;;;;;;;10.43;5.43;;;25.20;50.50;;;;;;7394245;19;20014;-63
2023/05/28 09:38:12;;;;;;;10.27;6.45;;;25.20;49.80;;;;;;7394005;19;20011;-63
2023/05/28 09:40:41;;;;;;;11.00;5.53;;;25.40;48.70;;;;;;7393756;19;20497;-63
2023/05/28 09:43:10;;;;;;;12.48;5.13;;;25.60;49.60;;;;;;7393347;19;20018;-63
2023/05/28 09:45:37;;;;;;;12.98;6.55;;;25.70;48.40;;;;;;7392404;19;20022;-63
2023/05/28 09:48:03;;;;;;;9.25;5.75;;;25.90;49.20;;;;;;7393249;19;20024;-63
2023/05/28 09:50:30;;;;;;;8.82;5.50;;;26.10;49.50;;;;;;7393375;19;20029;-64
2023/05/28 09:52:58;;;;;;;8.98;5.65;;;26.50;47.10;;;;;;7388099;19;20487;-63
2023/05/28 09:55:26;;;;;;;10.05;6.00;;;26.50;47.10;;;;;;7388574;19;20105;-63
2023/05/28 09:57:55;;;;;;;8.63;4.93;;;26.70;47.20;;;;;;7390491;19;20022;-64
2023/05/28 10:00:38;;;;;;;8.90;5.20;;;26.50;45.60;;;;;;7393639;19;20019;-63
2023/05/28 10:03:22;;;;;;;11.48;5.47;;;26.80;46.20;;;;;;7393374;19;20022;-63
2023/05/28 10:05:52;;;;;;;9.52;5.65;;;27.00;45.10;;;;;;7390364;19;20011;-63
2023/05/28 10:08:21;;;;;;;10.10;6.47;;;27.10;46.00;;;;;;7389547;19;20377;-63
2023/05/28 10:10:53;;;;;;;10.93;6.35;;;27.30;45.90;;;;;;7388115;19;20039;-64
2023/05/28 10:13:20;;;;;;;10.18;5.57;;;26.90;44.10;;;;;;7391491;19;20014;-63
2023/05/28 10:15:47;;;;;;;11.57;6.10;;;27.00;44.00;;;;;;7390238;19;20561;-64
2023/05/28 10:18:14;;;;;;;13.20;6.50;;;27.20;44.90;;;;;;7391457;19;20018;-63
2023/05/28 10:20:41;;;;;;;8.70;6.15;;;26.90;43.60;;;;;;7389794;19;20293;-63
2023/05/28 10:23:11;;;;;;;9.50;6.13;;;27.30;43.80;;;;;;7379895;19;20912;-60
2023/05/28 10:25:37;;;;;;;8.77;5.68;;;27.20;42.40;;;;;;7383179;19;20042;-63
2023/05/28 10:28:05;;;;;;;9.82;5.72;;;27.50;42.30;;;;;;7389474;19;20028;-63
2023/05/28 10:30:32;;;;;;;9.50;5.22;;;27.50;42.30;;;;;;7386121;19;20030;-63
2023/05/28 10:33:00;;;;;;;10.88;6.30;;;27.60;42.50;;;;;;7385943;19;20027;-63
2023/05/28 10:35:26;;;;;;;9.50;5.93;;;27.60;42.20;;;;;;7384342;19;20015;-64
2023/05/28 10:38:03;;;;;;;10.68;5.43;;;27.80;41.70;;;;;;7390259;19;20990;-64
2023/05/28 10:40:32;;;;;;;9.65;6.30;;;27.80;41.40;;;;;;7384103;19;20026;-60
2023/05/28 10:42:59;;;;;;;9.88;6.80;;;27.90;41.70;;;;;;7380261;19;20026;-59
2023/05/28 10:45:37;;;;;;;10.27;6.45;;;28.10;41.20;;;;;;7374777;19;20025;-59
2023/05/28 10:48:04;;;;;;;8.30;5.53;;;28.10;40.60;;;;;;7377491;19;20018;-59
2023/05/28 10:50:31;;;;;;;7.82;5.30;;;27.80;40.50;;;;;;7376777;19;20608;-60
2023/05/28 10:53:07;;;;;;;10.30;6.07;;;28.00;41.10;;;;;;7370728;19;20026;-62
2023/05/28 10:55:53;;;;;;;50.92;46.45;;;28.10;40.60;;;;;;7373986;19;20018;-63
2023/05/28 10:58:25;;;;;;;22.30;19.92;;;28.00;41.00;;;;;;7384931;19;20031;-62
2023/05/28 11:00:52;;;;;;;48.50;43.78;;;28.00;41.30;;;;;;7385430;19;20025;-61
2023/05/28 11:03:41;;;;;;;10.02;7.38;;;28.20;41.50;;;;;;7385078;19;20018;-68
2023/05/28 11:06:10;;;;;;;11.95;7.57;;;28.10;41.60;;;;;;7378102;19;20018;-62
2023/05/28 11:08:45;;;;;;;11.93;7.22;;;28.10;41.50;;;;;;7385599;19;20803;-62
2023/05/28 11:11:16;;;;;;;16.02;10.93;;;28.20;41.20;;;;;;7384739;19;20042;-61
2023/05/28 11:13:46;;;;;;;23.33;21.10;;;28.10;40.90;;;;;;7386534;19;20017;-62
2023/05/28 11:16:18;;;;;;;10.63;8.50;;;28.00;41.20;;;;;;7384033;19;20382;-68
2023/05/28 11:19:08;;;;;;;13.80;10.18;;;28.10;40.80;;;;;;7373797;19;20021;-62
2023/05/28 11:21:55;;;;;;;9.80;7.60;;;28.20;41.00;;;;;;7379821;19;20015;-63
2023/05/28 11:24:22;;;;;;;10.15;6.90;;;28.30;40.30;;;;;;7384826;19;20031;-63
2023/05/28 11:26:48;;;;;;;9.15;7.03;;;27.80;40.30;;;;;;7385592;19;20535;-62
2023/05/28 11:29:15;;;;;;;8.38;5.70;;;28.20;40.60;;;;;;7376438;19;20027;-62
2023/05/28 11:31:42;;;;;;;9.98;5.40;;;28.20;40.70;;;;;;7385534;19;20014;-62
2023/05/28 11:34:08;;;;;;;17.90;15.18;;;28.40;39.50;;;;;;7386021;19;20026;-62
2023/05/28 11:36:42;;;;;;;14.00;12.57;;;28.40;39.40;;;;;;7380463;19;20081;-62
2023/05/28 11:39:09;;;;;;;9.30;7.00;;;28.30;39.00;;;;;;7376147;19;20506;-62
2023/05/28 11:41:41;;;;;;;24.65;21.98;;;28.30;38.50;;;;;;7394597;19;20007;-68
2023/05/28 11:44:24;;;;;;;16.50;12.68;;;28.10;38.40;;;;;;7389928;19;20043;-62
2023/05/28 11:46:55;;;;;;;11.63;10.43;;;28.30;39.00;;;;;;7392606;19;20039;-68
2023/05/28 11:49:22;;;;;;;11.68;9.88;;;28.20;37.90;;;;;;7389991;19;20006;-63
2023/05/28 11:51:52;;;;;;;10.68;8.93;;;28.10;37.90;;;;;;7392940;19;20098;-66
2023/05/28 11:54:18;;;;;;;8.38;5.90;;;28.10;37.30;;;;;;7373738;19;20035;-67
2023/05/28 11:56:49;;;;;;;7.90;6.70;;;28.20;37.80;;;;;;7378194;19;20034;-64
2023/05/28 11:59:19;;;;;;;65.63;59.60;;;28.10;37.50;;;;;;7382063;19;20031;-67
2023/05/28 12:01:45;;;;;;;12.48;11.20;;;28.20;38.00;;;;;;7377505;19;21772;-63
2023/05/28 12:04:11;;;;;;;24.75;22.38;;;28.10;37.10;;;;;;7377016;19;20022;-68
2023/05/28 12:06:54;;;;;;;18.00;16.13;;;28.10;36.90;;;;;;7378634;19;20055;-67
2023/05/28 12:09:22;;;;;;;13.88;9.73;;;28.20;36.60;;;;;;7383751;19;20026;-62
2023/05/28 12:12:04;;;;;;;11.85;10.60;;;28.20;36.40;;;;;;7377646;19;20097;-63
2023/05/28 12:14:32;;;;;;;12.68;11.38;;;28.30;36.10;;;;;;7378250;19;20364;-69
2023/05/28 12:17:05;;;;;;;10.10;8.25;;;28.10;35.80;;;;;;7377129;19;20022;-68
2023/05/28 12:19:37;;;;;;;8.20;6.63;;;28.10;35.20;;;;;;7381917;19;20014;-65
2023/05/28 12:22:16;;;;;;;8.15;6.35;;;27.80;35.50;;;;;;7381238;19;20015;-74
2023/05/28 12:24:55;;;;;;;10.65;8.57;;;28.00;36.30;;;;;;7388506;19;20011;-63
2023/05/28 12:27:21;;;;;;;30.98;27.88;;;28.30;36.90;;;;;;7387324;19;20786;-68
2023/05/28 12:29:47;;;;;;;29.85;27.00;;;28.30;36.70;;;;;;7390090;19;20565;-64
2023/05/28 12:32:14;;;;;;;19.63;17.60;;;28.20;37.20;;;;;;7387776;19;20356;-63
2023/05/28 12:34:40;;;;;;;20.17;18.02;;;28.50;36.50;;;;;;7392604;19;20039;-68
2023/05/28 12:37:07;;;;;;;17.83;15.95;;;28.20;36.20;;;;;;7387169;19;20086;-63
2023/05/28 12:39:35;;;;;;;9.45;7.38;;;28.10;36.60;;;;;;7387013;19;20471;-63
2023/05/28 12:42:03;;;;;;;8.48;5.72;;;28.20;36.50;;;;;;7394826;19;20011;-68
2023/05/28 12:44:29;;;;;;;10.27;9.07;;;28.50;35.80;;;;;;7391743;19;20014;-69
2023/05/28 12:46:56;;;;;;;10.07;8.10;;;28.70;36.20;;;;;;7387672;19;20006;-68